ěÝzenÝ letovÚho provozu ╚eskÚ republiky
Letiste: LKBC Aktualizace: 16.04.2024 06:30:58  UTC
 METAR LKBC 16.04. 06:30 ...
METAR LKBC 160630Z AUTO 25013KT //// // FEW094 OVC120 05/M01 Q1005=